Etusivu
METAR-TAF:

METAR-TAF

Lentoasemat :

Al Hoceima, Marokko

Leveyspiiri: 35-11N, Pituuspiiri: 003-51W, korkeus merenpinnasta: 27 m

Tämänhetkinen sää

Tämä raportti tehtiin 1 tunti ja 7 minuuttia sitten, kello 07.00 UTC
Tuuli 3 kn pohjoisesta, vaihdellen luoteen ja idän välillä
Lämpötila 22°C
Kosteus 94%
Ilmanpaine 1018 hPa
Näkyvyys 10 km tai enemmän
Muutamia pilviä 2000 ft:n korkeudessa
Hajonneita pilviä 3000 ft:n korkeudessa

METAR: GMTA 140700Z 01003KT 310V080 9999 FEW020 BKN030 22/21 Q1018 NOSIG

Aika: 09:07 (08:07 UTC)

Sääennuste

Tämä raportti tehtiin 3 tuntia ja 7 minuuttia sitten, kello 05.00 UTC
Ennuste voimassa 14. päivästä klo 06 UTC - 15. päivään klo 12 UTC
Tuuli 2 kn eri suunnista
Näkyvyys 10 km tai enemmän
Hajonneita pilviä 1700 ft:n korkeudessa

TAF: GMTA 140500Z 1406/1512 VRB02KT 9999 BKN017

Säähavainnot ja -ennusteet yli 4000 lentoasemalta (METAR- ja TAF-raportit).

Käytössä olevat sääasemat on merkitty karttaan keltaisilla ja punaisilla pisteillä.

Aseta hiiri pisteen päälle nähdäksesi sääaseman nimen.

Klikkaa sitten nähdäksesi säähavainnot ja -ennusteet.

Kartan vaihtaminen: klikkaa mustalla rastilla varustettuja vihreitä pisteitä, niin voit zoomata sisään; viivalla varustettua vihreää pistettä, niin voit zoomata ulos tai vihreitä nuolia, niin pääset viereisille kartoille.


METAR-TAF: